createdAt,value
2022-10-04T00:01:54.162Z,75.54
2022-10-04T00:04:29.019Z,76.61
2022-10-04T00:07:14.428Z,76.18
2022-10-04T00:09:57.609Z,76.41
2022-10-04T00:12:50.258Z,77.08
2022-10-04T00:15:34.995Z,77.38
2022-10-04T00:18:43.491Z,76.50
2022-10-04T00:21:11.139Z,76.81
2022-10-04T00:23:38.578Z,77.53
2022-10-04T00:26:22.802Z,77.75
2022-10-04T00:28:51.037Z,77.14
2022-10-04T00:31:24.880Z,77.61
2022-10-04T00:34:18.001Z,77.74
2022-10-04T00:36:55.392Z,77.24
2022-10-04T00:39:35.025Z,78.55
2022-10-04T00:42:20.243Z,79.02
2022-10-04T00:45:08.424Z,78.88
2022-10-04T00:47:59.048Z,79.28
2022-10-04T00:50:36.216Z,78.23
2022-10-04T00:53:27.186Z,78.34
2022-10-04T00:55:59.549Z,78.19
2022-10-04T00:58:39.092Z,77.73
2022-10-04T01:01:07.093Z,76.77
2022-10-04T01:03:41.496Z,76.74
2022-10-04T01:06:11.589Z,76.09
2022-10-04T01:08:53.082Z,76.37
2022-10-04T01:11:31.587Z,76.33
2022-10-04T01:14:11.726Z,76.67
2022-10-04T01:16:40.164Z,76.65
2022-10-04T01:19:28.626Z,75.37
2022-10-04T01:22:32.608Z,75.87
2022-10-04T01:25:00.489Z,76.29
2022-10-04T01:27:44.621Z,76.96
2022-10-04T01:30:18.266Z,77.16
2022-10-04T01:32:46.046Z,78.25
2022-10-04T01:35:16.333Z,78.66
2022-10-04T01:37:44.029Z,78.53
2022-10-04T01:40:12.261Z,78.73
2022-10-04T01:43:09.010Z,78.68
2022-10-04T01:45:50.703Z,77.59
2022-10-04T01:48:26.265Z,77.87
2022-10-04T01:51:11.612Z,78.22
2022-10-04T01:53:53.611Z,79.26
2022-10-04T01:56:28.129Z,79.92
2022-10-04T01:59:05.405Z,80.50
2022-10-04T02:01:51.228Z,80.84
2022-10-04T02:04:35.978Z,80.27
2022-10-04T02:07:10.490Z,81.08
2022-10-04T02:09:43.779Z,80.81
2022-10-04T02:12:17.500Z,81.55
2022-10-04T02:14:53.204Z,81.73
2022-10-04T02:17:33.131Z,82.79
2022-10-04T02:20:02.702Z,83.43
2022-10-04T02:22:31.395Z,81.92
2022-10-04T02:25:01.845Z,82.12
2022-10-04T02:27:31.420Z,82.11
2022-10-04T02:30:07.805Z,81.93
2022-10-04T02:32:55.083Z,81.28
2022-10-04T02:35:31.029Z,82.50
2022-10-04T02:38:14.415Z,82.82
2022-10-04T02:41:12.668Z,82.74
2022-10-04T02:44:16.324Z,82.35
2022-10-04T02:46:47.833Z,82.45
2022-10-04T02:49:34.816Z,81.71
2022-10-04T02:52:29.310Z,82.20
2022-10-04T02:55:07.033Z,82.63
2022-10-04T02:57:35.931Z,82.16
2022-10-04T03:00:20.671Z,83.23
2022-10-04T03:03:21.566Z,83.02
2022-10-04T03:06:04.480Z,83.43
2022-10-04T03:08:37.426Z,84.29
2022-10-04T03:11:06.237Z,84.30
2022-10-04T03:13:34.687Z,84.16
2022-10-04T03:16:02.449Z,85.10
2022-10-04T03:18:32.339Z,84.54
2022-10-04T03:21:06.691Z,83.56
2022-10-04T03:23:35.439Z,83.44
2022-10-04T03:26:16.723Z,83.52
2022-10-04T03:28:46.001Z,84.10
2022-10-04T03:31:15.422Z,84.32
2022-10-04T03:33:45.312Z,85.16
2022-10-04T03:36:17.936Z,85.95
2022-10-04T03:38:48.808Z,85.92
2022-10-04T03:41:16.985Z,85.52
2022-10-04T03:43:50.289Z,85.32
2022-10-04T03:46:20.180Z,87.02
2022-10-04T03:48:52.960Z,86.85
2022-10-04T03:51:26.512Z,87.08
2022-10-04T03:53:59.880Z,85.65
2022-10-04T03:56:30.116Z,85.56
2022-10-04T03:58:58.748Z,86.18
2022-10-04T04:01:41.561Z,86.00
2022-10-04T04:04:53.590Z,86.38
2022-10-04T04:07:28.517Z,88.13
2022-10-04T04:10:07.548Z,85.89
2022-10-04T04:12:56.316Z,86.33
2022-10-04T04:15:30.519Z,86.51
2022-10-04T04:18:06.314Z,86.91
2022-10-04T04:20:38.996Z,87.12
2022-10-04T04:23:32.154Z,85.97
2022-10-04T04:26:41.102Z,86.73
2022-10-04T04:29:14.480Z,86.42
2022-10-04T04:31:52.313Z,85.16
2022-10-04T04:34:24.948Z,86.15
2022-10-04T04:37:01.182Z,85.10
2022-10-04T04:39:41.282Z,84.37
2022-10-04T04:42:15.532Z,84.63
2022-10-04T04:44:58.828Z,84.41
2022-10-04T04:47:40.780Z,83.54
2022-10-04T04:50:18.601Z,84.77
2022-10-04T04:53:10.126Z,84.90
2022-10-04T04:56:02.967Z,83.88
2022-10-04T04:58:38.168Z,83.65
2022-10-04T05:01:28.929Z,84.37
2022-10-04T05:04:05.946Z,83.14
2022-10-04T05:06:38.647Z,82.07
2022-10-04T05:09:14.709Z,82.52
2022-10-04T05:11:42.396Z,82.20
2022-10-04T05:14:14.314Z,82.00
2022-10-04T05:16:54.261Z,81.93
2022-10-04T05:19:32.582Z,81.80
2022-10-04T05:22:07.702Z,81.28
2022-10-04T05:24:44.457Z,80.71
2022-10-04T05:27:35.035Z,80.60
2022-10-04T05:30:16.543Z,80.76
2022-10-04T05:33:14.610Z,80.62
2022-10-04T05:36:02.808Z,78.80
2022-10-04T05:39:03.317Z,77.26
2022-10-04T05:41:40.623Z,76.91
2022-10-04T05:44:32.064Z,76.93
2022-10-04T05:47:07.092Z,75.29
2022-10-04T05:49:46.573Z,75.16
2022-10-04T05:52:33.332Z,73.08
2022-10-04T05:55:27.403Z,72.50
2022-10-04T05:58:31.902Z,70.49
2022-10-04T06:02:14.842Z,71.15
2022-10-04T06:04:58.711Z,69.29
2022-10-04T06:07:42.892Z,68.24
2022-10-04T06:10:52.950Z,67.64
2022-10-04T06:13:52.147Z,67.23
2022-10-04T06:16:49.573Z,66.36
2022-10-04T06:19:45.052Z,68.41
2022-10-04T06:22:26.898Z,65.78
2022-10-04T06:24:57.700Z,64.60
2022-10-04T06:27:36.063Z,65.18
2022-10-04T06:30:15.037Z,65.34
2022-10-04T06:33:29.376Z,64.62
2022-10-04T06:36:16.491Z,64.81
2022-10-04T06:39:08.405Z,65.04
2022-10-04T06:42:16.807Z,63.05
2022-10-04T06:45:31.240Z,62.98
2022-10-04T06:48:29.016Z,62.79
2022-10-04T06:51:02.616Z,60.17
2022-10-04T06:53:54.835Z,60.94
2022-10-04T06:56:44.982Z,59.81
2022-10-04T06:59:56.577Z,60.75
2022-10-04T07:02:34.703Z,60.39
2022-10-04T07:05:21.731Z,59.33
2022-10-04T07:08:31.135Z,57.92
2022-10-04T07:11:23.390Z,57.38
2022-10-04T07:13:59.500Z,57.33
2022-10-04T07:16:35.389Z,57.29
2022-10-04T07:19:25.228Z,56.41
2022-10-04T07:22:08.051Z,56.41
2022-10-04T07:25:16.689Z,56.76
2022-10-04T07:28:35.437Z,56.19
2022-10-04T07:31:20.674Z,55.91
2022-10-04T07:33:56.301Z,54.90
2022-10-04T07:36:57.124Z,54.28
2022-10-04T07:39:48.444Z,54.05
2022-10-04T07:42:27.927Z,53.27
2022-10-04T07:45:15.391Z,49.05
2022-10-04T07:47:43.259Z,46.75
2022-10-04T07:50:25.005Z,48.22
2022-10-04T07:53:08.643Z,47.76
2022-10-04T07:56:03.549Z,49.20
2022-10-04T07:59:13.740Z,47.13
2022-10-04T08:02:31.411Z,47.40
2022-10-04T08:05:20.381Z,45.26
2022-10-04T08:08:13.811Z,44.91
2022-10-04T08:11:19.924Z,46.97
2022-10-04T08:14:05.131Z,46.18
2022-10-04T08:16:58.532Z,46.10
2022-10-04T08:19:50.464Z,45.60
2022-10-04T08:22:58.586Z,45.85
2022-10-04T08:26:01.377Z,45.46
2022-10-04T08:29:02.370Z,44.35
2022-10-04T08:32:05.624Z,43.42
2022-10-04T08:35:19.577Z,42.82
2022-10-04T08:38:09.737Z,44.32
2022-10-04T08:41:26.289Z,44.09
2022-10-04T08:44:29.214Z,43.00
2022-10-04T08:47:29.430Z,43.33
2022-10-04T08:50:26.079Z,43.78
2022-10-04T08:53:47.525Z,41.78
2022-10-04T08:56:49.392Z,43.32
2022-10-04T08:59:19.762Z,41.35
2022-10-04T09:02:48.451Z,41.89
2022-10-04T09:05:36.882Z,40.24
2022-10-04T09:08:40.659Z,40.98
2022-10-04T09:11:36.136Z,41.21
2022-10-04T09:15:14.542Z,40.02
2022-10-04T09:18:11.934Z,41.54
2022-10-04T09:21:25.645Z,41.44
2022-10-04T09:34:38.862Z,37.63
2022-10-04T09:37:23.921Z,38.53
2022-10-04T09:40:28.723Z,38.55
2022-10-04T09:43:29.507Z,38.26
2022-10-04T09:46:28.576Z,36.04
2022-10-04T09:49:32.720Z,36.39
2022-10-04T09:52:15.478Z,36.35
2022-10-04T09:54:56.858Z,37.25
2022-10-04T09:58:04.163Z,38.44
2022-10-04T10:00:50.141Z,38.89
2022-10-04T10:03:41.968Z,37.70
2022-10-04T10:06:52.283Z,37.08
2022-10-04T10:10:04.413Z,36.36
2022-10-04T10:13:28.859Z,36.60
2022-10-04T10:16:08.125Z,35.86
2022-10-04T10:19:13.126Z,36.83
2022-10-04T10:22:11.371Z,35.56
2022-10-04T10:25:03.845Z,35.61
2022-10-04T10:28:15.224Z,34.71
2022-10-04T10:31:21.838Z,36.77
2022-10-04T10:34:46.767Z,36.94
2022-10-04T10:37:47.317Z,37.23
2022-10-04T10:40:16.685Z,36.65
2022-10-04T10:43:04.749Z,37.51
2022-10-04T10:45:45.887Z,35.84
2022-10-04T10:48:43.961Z,35.56
2022-10-04T10:51:20.730Z,35.67
2022-10-04T10:54:14.221Z,36.48
2022-10-04T10:57:10.180Z,37.53
2022-10-04T11:00:14.229Z,37.93
2022-10-04T11:03:13.131Z,37.64
2022-10-04T11:06:08.598Z,38.00
2022-10-04T11:09:19.725Z,36.37
2022-10-04T11:12:26.911Z,36.29
2022-10-04T11:15:03.308Z,36.73
2022-10-04T11:18:17.912Z,35.15
2022-10-04T11:20:48.104Z,35.38
2022-10-04T11:23:51.978Z,35.80
2022-10-04T11:26:54.500Z,35.77
2022-10-04T11:30:09.819Z,35.82
2022-10-04T11:32:59.595Z,34.64
2022-10-04T11:36:08.225Z,34.90
2022-10-04T11:39:03.683Z,33.66
2022-10-04T11:41:50.346Z,33.80
2022-10-04T11:44:31.093Z,32.94
2022-10-04T11:47:28.970Z,32.66
2022-10-04T11:50:03.904Z,32.55
2022-10-04T11:53:39.492Z,32.83
2022-10-04T11:56:25.215Z,34.66
2022-10-04T11:59:12.526Z,34.96
2022-10-04T12:02:21.472Z,32.63
2022-10-04T12:05:28.516Z,33.79
2022-10-04T12:08:27.684Z,33.98
2022-10-04T12:11:25.724Z,35.09
2022-10-04T12:14:33.253Z,36.18
2022-10-04T12:17:44.458Z,36.63
2022-10-04T12:20:43.248Z,36.27
2022-10-04T12:24:06.372Z,34.63
2022-10-04T12:27:03.926Z,34.50
2022-10-04T12:30:54.309Z,35.59
2022-10-04T12:33:31.997Z,35.47
2022-10-04T12:36:34.624Z,36.65
2022-10-04T12:39:20.652Z,36.87
2022-10-04T12:42:48.671Z,37.71
2022-10-04T12:45:49.906Z,36.68
2022-10-04T12:48:26.435Z,36.17
2022-10-04T12:51:14.849Z,33.63
2022-10-04T12:54:10.757Z,32.33
2022-10-04T12:57:10.356Z,31.19
2022-10-04T13:00:14.395Z,30.30
2022-10-04T13:03:18.994Z,29.50
2022-10-04T13:06:19.648Z,28.77
2022-10-04T13:09:10.346Z,30.37
2022-10-04T13:12:02.349Z,32.48
2022-10-04T13:15:23.752Z,32.75
2022-10-04T13:18:18.146Z,32.46
2022-10-04T13:20:57.702Z,31.00
2022-10-04T13:23:45.910Z,29.82
2022-10-04T13:26:44.546Z,27.56
2022-10-04T13:29:30.265Z,26.97
2022-10-04T13:32:07.937Z,27.38
2022-10-04T13:34:55.406Z,26.09
2022-10-04T13:38:18.519Z,26.35
2022-10-04T13:41:09.123Z,26.37
2022-10-04T13:44:20.156Z,25.82
2022-10-04T13:47:04.995Z,25.74
2022-10-04T13:50:03.837Z,24.78
2022-10-04T13:53:43.186Z,23.22
2022-10-04T13:56:37.130Z,24.20
2022-10-04T13:59:49.183Z,25.01
2022-10-04T14:03:08.401Z,24.56
2022-10-04T14:08:56.409Z,24.01
2022-10-04T14:12:19.371Z,24.54
2022-10-04T14:15:41.260Z,25.13
2022-10-04T14:18:49.369Z,23.96
2022-10-04T14:22:03.884Z,25.53
2022-10-04T14:24:49.891Z,26.21
2022-10-04T14:27:48.443Z,25.41
2022-10-04T14:30:30.873Z,26.56
2022-10-04T14:33:23.769Z,26.37
2022-10-04T14:36:04.704Z,25.24
2022-10-04T14:39:13.834Z,24.80
2022-10-04T14:42:48.510Z,25.53
2022-10-04T14:45:39.004Z,26.39
2022-10-04T14:48:50.260Z,28.99
2022-10-04T14:51:57.367Z,30.53
2022-10-04T14:54:29.197Z,32.03
2022-10-04T14:57:22.887Z,33.26
2022-10-04T15:00:16.302Z,33.98
2022-10-04T15:03:30.966Z,34.56
2022-10-04T15:06:49.602Z,35.53
2022-10-04T15:09:52.475Z,35.40
2022-10-04T15:12:58.377Z,36.51
2022-10-04T15:15:21.342Z,36.96
2022-10-04T15:17:51.978Z,37.47
2022-10-04T15:20:40.658Z,37.74
2022-10-04T15:23:13.566Z,37.95
2022-10-04T15:25:54.522Z,38.51
2022-10-04T15:29:16.000Z,38.49
2022-10-04T15:31:47.215Z,40.27
2022-10-04T15:34:39.296Z,38.88
2022-10-04T15:37:27.885Z,39.86
2022-10-04T15:40:16.690Z,40.53
2022-10-04T15:43:10.737Z,43.56
2022-10-04T15:46:03.459Z,41.71
2022-10-04T15:49:25.020Z,40.82
2022-10-04T15:52:26.929Z,41.77
2022-10-04T15:55:53.033Z,43.12
2022-10-04T15:58:54.703Z,43.60
2022-10-04T16:02:10.114Z,44.35
2022-10-04T16:05:25.716Z,43.17
2022-10-04T16:08:16.426Z,43.31
2022-10-04T16:11:30.668Z,44.75
2022-10-04T16:14:06.991Z,45.74
2022-10-04T16:16:39.946Z,46.96
2022-10-04T16:20:07.732Z,46.93
2022-10-04T16:22:40.057Z,48.58
2022-10-04T16:25:26.654Z,47.14
2022-10-04T16:28:00.333Z,46.82
2022-10-04T16:30:38.692Z,47.29
2022-10-04T16:33:39.453Z,47.74
2022-10-04T16:36:34.758Z,47.86
2022-10-04T16:39:23.026Z,48.45
2022-10-04T16:42:02.744Z,49.04
2022-10-04T16:44:53.984Z,49.26
2022-10-04T16:47:48.484Z,49.77
2022-10-04T16:51:21.882Z,49.25
2022-10-04T16:54:04.953Z,50.00
2022-10-04T16:57:00.410Z,50.71
2022-10-04T17:00:00.862Z,50.71
2022-10-04T17:03:07.164Z,50.75
2022-10-04T17:06:19.085Z,52.54
2022-10-04T17:09:31.027Z,50.72
2022-10-04T17:12:06.709Z,51.92
2022-10-04T17:14:43.707Z,51.57
2022-10-04T17:17:45.791Z,51.96
2022-10-04T17:20:23.365Z,54.15
2022-10-04T17:23:12.854Z,51.43
2022-10-04T17:26:14.366Z,52.19
2022-10-04T17:29:04.572Z,52.24
2022-10-04T17:31:47.838Z,51.34
2022-10-04T17:34:34.098Z,52.85
2022-10-04T17:37:38.003Z,53.44
2022-10-04T17:40:17.466Z,55.50
2022-10-04T17:43:35.629Z,54.79
2022-10-04T17:46:12.568Z,55.41
2022-10-04T17:49:15.647Z,55.71
2022-10-04T17:52:24.341Z,57.30
2022-10-04T17:55:15.988Z,57.60
2022-10-04T17:58:13.328Z,57.03
2022-10-04T18:01:08.086Z,57.31
2022-10-04T18:04:18.313Z,57.58
2022-10-04T18:07:09.933Z,55.39
2022-10-04T18:09:52.973Z,53.08
2022-10-04T18:12:45.550Z,53.03
2022-10-04T18:15:41.947Z,55.23
2022-10-04T18:18:19.154Z,58.23
2022-10-04T18:21:07.681Z,58.82
2022-10-04T18:23:42.673Z,60.54
2022-10-04T18:26:19.067Z,58.48
2022-10-04T18:28:48.972Z,59.11
2022-10-04T18:31:42.746Z,57.80
2022-10-04T18:34:32.201Z,59.13
2022-10-04T18:37:40.871Z,59.31
2022-10-04T18:40:29.137Z,60.22
2022-10-04T18:43:01.995Z,57.35
2022-10-04T18:45:39.233Z,57.40
2022-10-04T18:48:18.871Z,59.96
2022-10-04T18:50:48.551Z,61.36
2022-10-04T18:53:44.193Z,62.02
2022-10-04T18:56:13.866Z,62.35
2022-10-04T18:59:32.027Z,63.09
2022-10-04T19:02:34.884Z,64.13
2022-10-04T19:05:42.317Z,64.58
2022-10-04T19:08:40.374Z,65.75
2022-10-04T19:11:22.437Z,66.12
2022-10-04T19:14:23.358Z,66.57
2022-10-04T19:17:47.959Z,67.46
2022-10-04T19:20:36.312Z,65.03
2022-10-04T19:23:34.976Z,64.94
2022-10-04T19:26:31.650Z,66.00
2022-10-04T19:29:50.472Z,65.52
2022-10-04T19:33:02.030Z,66.94
2022-10-04T19:35:50.436Z,66.64
2022-10-04T19:38:53.584Z,66.96
2022-10-04T19:41:45.555Z,67.68
2022-10-04T19:44:37.617Z,68.38
2022-10-04T19:47:45.149Z,68.74
2022-10-04T19:50:45.234Z,69.68
2022-10-04T19:53:37.060Z,69.67
2022-10-04T19:56:18.387Z,69.31
2022-10-04T19:59:33.668Z,69.80
2022-10-04T20:02:01.393Z,70.41
2022-10-04T20:04:35.058Z,70.92
2022-10-04T20:07:18.331Z,70.73
2022-10-04T20:09:52.802Z,69.24
2022-10-04T20:12:42.002Z,69.08
2022-10-04T20:15:27.495Z,69.21
2022-10-04T20:17:56.653Z,68.27
2022-10-04T20:20:39.257Z,69.00
2022-10-04T20:23:08.757Z,69.08
2022-10-04T20:25:49.287Z,69.73
2022-10-04T20:28:40.310Z,71.00
2022-10-04T20:31:50.863Z,72.58
2022-10-04T20:34:38.676Z,72.75
2022-10-04T20:37:09.177Z,72.99
2022-10-04T20:39:43.316Z,72.90
2022-10-04T20:42:38.910Z,72.83
2022-10-04T20:45:13.192Z,72.56
2022-10-04T20:47:48.321Z,72.72
2022-10-04T20:50:42.348Z,73.82
2022-10-04T20:53:21.782Z,73.37
2022-10-04T20:55:54.203Z,73.40
2022-10-04T20:58:35.937Z,73.29
2022-10-04T21:01:37.864Z,74.22
2022-10-04T21:04:42.893Z,75.32
2022-10-04T21:07:25.829Z,74.32
2022-10-04T21:10:08.505Z,74.45
2022-10-04T21:12:36.110Z,74.59
2022-10-04T21:15:21.224Z,74.06
2022-10-04T21:18:07.737Z,73.99
2022-10-04T21:20:52.063Z,75.28
2022-10-04T21:23:31.507Z,75.55
2022-10-04T21:26:24.586Z,76.27
2022-10-04T21:28:59.720Z,76.03
2022-10-04T21:31:27.296Z,76.58
2022-10-04T21:33:54.882Z,76.77
2022-10-04T21:36:22.457Z,76.72
2022-10-04T21:38:50.237Z,77.62
2022-10-04T21:41:17.868Z,75.96
2022-10-04T21:43:45.546Z,75.83
2022-10-04T21:46:17.851Z,76.37
2022-10-04T21:48:47.705Z,75.80
2022-10-04T21:51:15.528Z,75.47
2022-10-04T21:53:43.142Z,77.20
2022-10-04T21:56:10.757Z,76.36
2022-10-04T21:58:38.267Z,75.77
2022-10-04T22:01:06.323Z,75.56
2022-10-04T22:03:34.100Z,75.72
2022-10-04T22:06:01.798Z,75.38
2022-10-04T22:08:29.402Z,76.27
2022-10-04T22:10:57.922Z,76.49
2022-10-04T22:13:27.014Z,77.41
2022-10-04T22:15:55.399Z,78.44
2022-10-04T22:18:23.018Z,77.84
2022-10-04T22:20:50.630Z,79.35
2022-10-04T22:23:24.568Z,79.88
2022-10-04T22:25:53.578Z,79.56
2022-10-04T22:28:24.796Z,80.01
2022-10-04T22:30:55.777Z,79.59
2022-10-04T22:33:39.736Z,80.66
2022-10-04T22:36:18.347Z,80.42
2022-10-04T22:39:08.908Z,80.53
2022-10-04T22:41:40.959Z,81.18
2022-10-04T22:44:19.678Z,80.87
2022-10-04T22:46:53.899Z,81.12
2022-10-04T22:49:32.431Z,80.10
2022-10-04T22:52:14.094Z,80.46
2022-10-04T22:54:49.079Z,79.06
2022-10-04T22:57:19.321Z,79.08
2022-10-04T22:59:52.961Z,78.99
2022-10-04T23:02:28.845Z,78.81
2022-10-04T23:05:01.556Z,78.63
2022-10-04T23:07:29.788Z,78.98
2022-10-04T23:09:57.359Z,78.28
2022-10-04T23:12:24.903Z,79.13
2022-10-04T23:14:52.619Z,79.31
2022-10-04T23:17:30.784Z,79.60
2022-10-04T23:20:07.530Z,79.58
2022-10-04T23:22:35.333Z,80.02
2022-10-04T23:25:06.365Z,80.25
2022-10-04T23:27:35.110Z,79.97
2022-10-04T23:30:03.897Z,80.01
2022-10-04T23:32:33.468Z,80.36
2022-10-04T23:35:02.616Z,80.84
2022-10-04T23:37:33.163Z,80.56
2022-10-04T23:40:01.384Z,81.22
2022-10-04T23:42:32.536Z,81.26
2022-10-04T23:45:02.896Z,81.16
2022-10-04T23:47:36.589Z,81.09
2022-10-04T23:50:34.733Z,80.14
2022-10-04T23:53:06.609Z,81.27
2022-10-04T23:55:41.918Z,81.55
2022-10-04T23:58:21.084Z,82.22
